Time;durP1;ratioP1;P1;durP2;ratioP2;P2;SDS_P1;SDS_P2;PMS_P1;PMS_P2;Temp;Humidity;BMP_temperature;BMP_pressure;BME280_temperature;BME280_humidity;BME280_pressure;Samples;Min_cycle;Max_cycle;Signal;HPM_P1;HPM_P2
2021/01/31 00:00:27;;;;;;;3.70;1.33;;;7.70;99.90;;;;;;5082890;28;20369;-62
2021/01/31 00:02:53;;;;;;;3.60;0.98;;;7.70;99.90;;;;;;5089587;28;20020;-60
2021/01/31 00:05:20;;;;;;;1.73;0.73;;;7.80;99.90;;;;;;5082712;28;20067;-59
2021/01/31 00:07:46;;;;;;;1.27;0.88;;;7.70;99.90;;;;;;5089216;28;20103;-59
2021/01/31 00:10:14;;;;;;;2.60;1.00;;;7.60;99.90;;;;;;5083098;28;20431;-59
2021/01/31 00:12:40;;;;;;;1.70;0.95;;;7.70;99.90;;;;;;5076187;28;20032;-59
2021/01/31 00:15:08;;;;;;;1.73;0.70;;;7.70;99.90;;;;;;5085109;28;20024;-59
2021/01/31 00:17:34;;;;;;;3.40;1.45;;;7.70;99.90;;;;;;5084487;28;20099;-60
2021/01/31 00:20:00;;;;;;;3.65;1.83;;;7.70;99.90;;;;;;5090652;28;20108;-61
2021/01/31 00:22:26;;;;;;;4.07;1.00;;;7.80;99.90;;;;;;5084520;28;20545;-59
2021/01/31 00:24:54;;;;;;;2.72;0.90;;;7.70;99.90;;;;;;5089984;28;20032;-59
2021/01/31 00:27:24;;;;;;;3.60;0.88;;;7.60;99.90;;;;;;5091047;28;20040;-59
2021/01/31 00:29:51;;;;;;;1.67;0.70;;;7.60;99.90;;;;;;5089272;28;20062;-59
2021/01/31 00:32:22;;;;;;;3.53;0.90;;;7.60;99.90;;;;;;5090242;28;20492;-59
2021/01/31 00:34:48;;;;;;;5.30;1.00;;;7.70;99.90;;;;;;5088282;28;20021;-59
2021/01/31 00:37:15;;;;;;;2.35;0.70;;;7.70;99.90;;;;;;5082623;28;20479;-59
2021/01/31 00:39:43;;;;;;;3.42;0.57;;;7.70;99.90;;;;;;5089724;28;20468;-59
2021/01/31 00:42:09;;;;;;;2.25;0.70;;;7.70;99.90;;;;;;5081857;28;20028;-59
2021/01/31 00:44:34;;;;;;;1.75;0.73;;;7.70;99.90;;;;;;5089512;28;20024;-59
2021/01/31 00:47:00;;;;;;;2.15;0.60;;;7.60;99.90;;;;;;5081540;28;20102;-59
2021/01/31 00:49:26;;;;;;;2.00;0.65;;;7.60;99.90;;;;;;5090218;28;20025;-59
2021/01/31 00:51:51;;;;;;;3.00;0.73;;;7.70;99.90;;;;;;5067998;28;20084;-60
2021/01/31 00:54:17;;;;;;;3.33;1.02;;;7.80;99.90;;;;;;5087938;28;20044;-59
2021/01/31 00:56:43;;;;;;;1.80;1.10;;;7.80;99.90;;;;;;5088361;28;20510;-59
2021/01/31 00:59:08;;;;;;;3.38;0.77;;;7.90;99.90;;;;;;5073270;28;20028;-60
2021/01/31 01:01:34;;;;;;;2.00;0.50;;;7.80;99.90;;;;;;5091768;28;20040;-59
2021/01/31 01:03:59;;;;;;;4.13;0.60;;;7.80;99.90;;;;;;5092032;28;20047;-59
2021/01/31 01:06:25;;;;;;;2.50;0.88;;;8.00;99.90;;;;;;5086596;28;20032;-59
2021/01/31 01:08:51;;;;;;;3.63;0.70;;;7.80;99.90;;;;;;5092661;28;20085;-59
2021/01/31 01:11:16;;;;;;;1.60;0.60;;;7.90;99.90;;;;;;5081708;28;20085;-59
2021/01/31 01:13:42;;;;;;;1.90;0.60;;;8.00;99.90;;;;;;5080599;28;20090;-59
2021/01/31 01:16:07;;;;;;;1.67;0.60;;;8.00;99.90;;;;;;5081497;28;20028;-60
2021/01/31 01:18:35;;;;;;;1.42;0.57;;;8.00;99.90;;;;;;5092431;28;20028;-59
2021/01/31 01:21:01;;;;;;;3.35;0.73;;;8.00;99.90;;;;;;5089914;28;20111;-59
2021/01/31 01:23:26;;;;;;;1.35;0.70;;;7.90;99.90;;;;;;5091020;28;20567;-59
2021/01/31 01:25:52;;;;;;;1.90;0.80;;;8.00;99.90;;;;;;5088993;28;21982;-61
2021/01/31 01:28:18;;;;;;;2.88;0.60;;;8.00;99.90;;;;;;5088954;28;20377;-59
2021/01/31 01:30:43;;;;;;;3.67;1.00;;;8.10;99.90;;;;;;5088280;28;20038;-59
2021/01/31 01:33:09;;;;;;;2.20;0.60;;;8.10;99.90;;;;;;5089124;28;20107;-59
2021/01/31 01:35:34;;;;;;;2.30;0.55;;;8.10;99.90;;;;;;5087027;28;20054;-59
2021/01/31 01:38:00;;;;;;;2.30;1.08;;;8.10;99.90;;;;;;5088168;28;20462;-59
2021/01/31 01:40:36;;;;;;;1.73;0.70;;;8.20;99.90;;;;;;5085995;28;20085;-59
2021/01/31 01:43:02;;;;;;;1.95;0.70;;;8.20;99.90;;;;;;5083444;28;20016;-59
2021/01/31 01:45:28;;;;;;;1.77;0.60;;;8.20;99.90;;;;;;5084941;28;20058;-59
2021/01/31 01:47:59;;;;;;;2.20;0.70;;;8.10;99.90;;;;;;5086333;28;20031;-59
2021/01/31 01:50:48;;;;;;;2.40;0.63;;;8.10;99.90;;;;;;5085036;28;20115;-59
2021/01/31 01:53:16;;;;;;;2.50;0.70;;;8.20;99.90;;;;;;5089657;28;20028;-59
2021/01/31 01:56:04;;;;;;;2.80;0.80;;;8.20;99.90;;;;;;5085753;28;20028;-60
2021/01/31 01:58:31;;;;;;;2.55;0.47;;;8.10;99.90;;;;;;5091656;28;20669;-59
2021/01/31 02:00:58;;;;;;;1.90;0.63;;;8.10;99.90;;;;;;5083209;28;20016;-59
2021/01/31 02:03:28;;;;;;;3.10;0.65;;;8.10;99.90;;;;;;5083716;28;20024;-60
2021/01/31 02:06:06;;;;;;;2.35;0.85;;;8.20;99.90;;;;;;5081327;28;20044;-59
2021/01/31 02:08:32;;;;;;;2.40;0.82;;;8.20;99.90;;;;;;5082938;28;20024;-59
2021/01/31 02:10:57;;;;;;;4.65;0.63;;;8.30;99.90;;;;;;5080744;28;20106;-60
2021/01/31 02:13:23;;;;;;;1.67;0.52;;;8.30;99.90;;;;;;5077809;28;20043;-59
2021/01/31 02:15:52;;;;;;;0.63;0.20;;;8.20;99.90;;;;;;5082904;28;20027;-59
2021/01/31 02:18:42;;;;;;;0.93;0.40;;;8.30;99.90;;;;;;5089132;28;20027;-60
2021/01/31 02:21:58;;;;;;;1.20;0.30;;;8.30;99.90;;;;;;5088626;28;20024;-59
2021/01/31 02:24:37;;;;;;;2.63;0.85;;;8.20;99.90;;;;;;5063170;28;20535;-60
2021/01/31 02:27:08;;;;;;;2.67;0.60;;;8.40;99.90;;;;;;5089083;28;20111;-60
2021/01/31 02:29:52;;;;;;;1.58;0.60;;;8.20;99.90;;;;;;5088631;28;20103;-59
2021/01/31 02:32:37;;;;;;;1.20;0.65;;;8.20;99.90;;;;;;5086856;28;20556;-59
2021/01/31 02:35:23;;;;;;;1.15;0.60;;;8.20;99.90;;;;;;5085989;28;20032;-59
2021/01/31 02:37:55;;;;;;;;;;;8.20;99.90;;;;;;5085428;28;20029;-59
2021/01/31 02:40:34;;;;;;;2.65;0.40;;;8.30;99.90;;;;;;5085187;28;20360;-61
2021/01/31 02:43:11;;;;;;;1.25;0.50;;;8.20;99.90;;;;;;5086580;28;20024;-59
2021/01/31 02:45:43;;;;;;;1.25;0.43;;;8.20;99.90;;;;;;5083976;28;20040;-59
2021/01/31 02:48:31;;;;;;;2.17;0.52;;;8.20;99.90;;;;;;5085547;28;20039;-59
2021/01/31 02:51:09;;;;;;;4.53;0.30;;;8.20;99.90;;;;;;5084051;28;20097;-59
2021/01/31 02:53:41;;;;;;;0.40;0.32;;;8.20;99.90;;;;;;5084872;28;20461;-59
2021/01/31 02:56:13;;;;;;;2.88;0.52;;;8.20;99.90;;;;;;5083920;28;20054;-59
2021/01/31 02:58:44;;;;;;;0.60;0.32;;;8.20;99.90;;;;;;5084733;28;20020;-60
2021/01/31 03:01:16;;;;;;;1.65;0.40;;;8.20;99.90;;;;;;5083878;28;20054;-59
2021/01/31 03:03:54;;;;;;;1.58;0.40;;;8.20;99.90;;;;;;5090545;28;20093;-59
2021/01/31 03:06:26;;;;;;;0.70;0.30;;;8.20;99.90;;;;;;5082826;28;20048;-59
2021/01/31 03:09:08;;;;;;;1.08;0.30;;;8.20;99.90;;;;;;5090318;28;20094;-59
2021/01/31 03:11:57;;;;;;;0.40;0.30;;;8.20;99.90;;;;;;5080990;28;20040;-59
2021/01/31 03:14:36;;;;;;;0.35;0.35;;;8.20;99.90;;;;;;5081730;28;20115;-59
2021/01/31 03:17:07;;;;;;;0.73;0.30;;;8.30;99.90;;;;;;5086293;28;20020;-59
2021/01/31 03:19:56;;;;;;;1.92;0.30;;;8.30;99.90;;;;;;5087813;28;20020;-61
2021/01/31 03:22:27;;;;;;;0.43;0.30;;;8.20;99.90;;;;;;5089109;28;20028;-59
2021/01/31 03:25:11;;;;;;;0.47;0.30;;;8.20;99.90;;;;;;5086984;28;20100;-60
2021/01/31 03:27:40;;;;;;;0.57;0.30;;;8.30;99.90;;;;;;5082365;28;20075;-60
2021/01/31 03:30:08;;;;;;;0.30;0.25;;;8.20;99.90;;;;;;5086017;28;20480;-59
2021/01/31 03:32:43;;;;;;;0.65;0.40;;;8.30;99.90;;;;;;5087421;28;20020;-59
2021/01/31 03:35:13;;;;;;;0.25;0.20;;;8.10;99.90;;;;;;5084994;28;20099;-61
2021/01/31 03:37:48;;;;;;;1.02;0.32;;;8.30;99.90;;;;;;5086758;28;20559;-61
2021/01/31 03:40:16;;;;;;;0.82;0.20;;;8.30;99.90;;;;;;5084346;28;20039;-59
2021/01/31 03:42:44;;;;;;;0.30;0.20;;;8.30;99.90;;;;;;5085538;28;20019;-59
2021/01/31 03:45:12;;;;;;;0.80;0.60;;;8.30;99.90;;;;;;5083113;28;20116;-59
2021/01/31 03:48:05;;;;;;;0.40;0.30;;;8.20;99.90;;;;;;5084583;28;20478;-60
2021/01/31 03:50:31;;;;;;;0.32;0.20;;;8.40;99.90;;;;;;5082586;28;20024;-60
2021/01/31 03:52:57;;;;;;;0.40;0.20;;;8.30;99.90;;;;;;5089389;28;20476;-60
2021/01/31 03:55:23;;;;;;;0.57;0.30;;;8.30;99.90;;;;;;5083108;28;20052;-59
2021/01/31 03:58:00;;;;;;;0.68;0.30;;;8.30;99.90;;;;;;5089578;28;20044;-59
2021/01/31 04:00:29;;;;;;;1.20;0.20;;;8.30;99.90;;;;;;5082892;28;20387;-61
2021/01/31 04:03:18;;;;;;;1.48;0.20;;;8.30;99.90;;;;;;5089515;28;20017;-59
2021/01/31 04:06:08;;;;;;;0.22;0.15;;;8.40;99.90;;;;;;5082644;28;20021;-60
2021/01/31 04:08:36;;;;;;;0.20;0.20;;;8.40;99.90;;;;;;5081164;28;20035;-59
2021/01/31 04:11:02;;;;;;;0.88;0.20;;;8.40;99.90;;;;;;5082701;28;20095;-59
2021/01/31 04:13:30;;;;;;;2.35;0.20;;;8.50;99.90;;;;;;5088776;28;20174;-59
2021/01/31 04:15:59;;;;;;;1.88;0.68;;;8.40;99.90;;;;;;5080308;28;20104;-59
2021/01/31 04:18:25;;;;;;;0.32;0.20;;;8.40;99.90;;;;;;5088083;28;20016;-59
2021/01/31 04:20:52;;;;;;;1.50;0.63;;;8.40;99.90;;;;;;5080660;28;20052;-59
2021/01/31 04:23:19;;;;;;;0.85;0.28;;;8.40;99.90;;;;;;5087130;28;20103;-59
2021/01/31 04:25:45;;;;;;;0.65;0.35;;;8.40;99.90;;;;;;5086520;28;20024;-60
2021/01/31 04:28:21;;;;;;;0.77;0.30;;;8.60;99.90;;;;;;5087678;28;20051;-61
2021/01/31 04:30:56;;;;;;;0.75;0.30;;;8.50;99.90;;;;;;5085698;28;20028;-59
2021/01/31 04:33:23;;;;;;;0.98;0.63;;;8.50;99.90;;;;;;5086731;28;20381;-59
2021/01/31 04:35:49;;;;;;;1.55;0.40;;;8.70;99.90;;;;;;5082397;28;20024;-59
2021/01/31 04:38:15;;;;;;;2.15;0.40;;;8.70;99.90;;;;;;5080788;28;20122;-61
2021/01/31 04:40:41;;;;;;;2.13;0.50;;;8.80;99.90;;;;;;5082743;28;20369;-59
2021/01/31 04:43:11;;;;;;;4.35;0.60;;;9.00;99.90;;;;;;5080214;28;20028;-59
2021/01/31 04:45:38;;;;;;;2.38;0.73;;;8.90;99.90;;;;;;5082123;28;20114;-60
2021/01/31 04:48:19;;;;;;;6.47;1.50;;;8.90;99.90;;;;;;5080646;28;20028;-59
2021/01/31 04:50:47;;;;;;;2.97;0.80;;;8.90;99.90;;;;;;5082486;28;20051;-59
2021/01/31 04:53:41;;;;;;;4.22;1.23;;;9.10;99.90;;;;;;5079987;28;20095;-59
2021/01/31 04:56:30;;;;;;;7.82;1.23;;;9.10;99.90;;;;;;5082558;28;20055;-60
2021/01/31 04:59:08;;;;;;;6.80;1.30;;;9.20;99.90;;;;;;5083487;28;20020;-59
2021/01/31 05:01:34;;;;;;;5.20;1.42;;;9.20;99.90;;;;;;5082604;28;20610;-59
2021/01/31 05:04:00;;;;;;;6.88;1.33;;;9.20;99.90;;;;;;5092398;28;20069;-59
2021/01/31 05:06:44;;;;;;;5.10;1.13;;;9.30;99.90;;;;;;5085637;28;20082;-61
2021/01/31 05:09:22;;;;;;;7.65;1.17;;;9.20;99.90;;;;;;5091332;28;20039;-60
2021/01/31 05:12:18;;;;;;;4.80;1.30;;;9.30;99.90;;;;;;5080030;28;20028;-59
2021/01/31 05:15:13;;;;;;;2.42;0.95;;;9.20;99.90;;;;;;5086941;28;20024;-59
2021/01/31 05:17:44;;;;;;;2.53;0.68;;;9.30;99.90;;;;;;5084913;28;20016;-59
2021/01/31 05:20:10;;;;;;;3.47;0.70;;;9.20;99.90;;;;;;5089613;28;20621;-59
2021/01/31 05:22:44;;;;;;;2.97;0.80;;;9.20;99.90;;;;;;5084298;28;20028;-59
2021/01/31 05:25:14;;;;;;;4.07;1.00;;;9.30;99.90;;;;;;5089605;28;20017;-59
2021/01/31 05:27:42;;;;;;;3.53;0.65;;;9.30;99.90;;;;;;5090863;28;20036;-59
2021/01/31 05:30:08;;;;;;;5.03;0.77;;;9.30;99.90;;;;;;5088724;28;20047;-59
2021/01/31 05:33:00;;;;;;;3.15;1.42;;;9.30;99.90;;;;;;5090018;28;20111;-59
2021/01/31 05:35:26;;;;;;;2.97;0.80;;;9.20;99.90;;;;;;5072948;28;20602;-60
2021/01/31 05:37:52;;;;;;;3.72;0.60;;;9.20;99.90;;;;;;5089092;28;20034;-59
2021/01/31 05:40:43;;;;;;;4.70;0.70;;;9.10;99.90;;;;;;5086744;28;20028;-59
2021/01/31 05:43:24;;;;;;;4.70;0.93;;;9.20;99.90;;;;;;5083052;28;20060;-59
2021/01/31 05:45:50;;;;;;;2.83;0.50;;;9.20;99.90;;;;;;5085617;28;20111;-59
2021/01/31 05:48:23;;;;;;;2.50;0.38;;;9.20;99.90;;;;;;5087247;28;20119;-59
2021/01/31 05:50:52;;;;;;;1.58;0.57;;;9.20;99.90;;;;;;5085173;28;20385;-59
2021/01/31 05:53:30;;;;;;;2.65;0.50;;;9.20;99.90;;;;;;5091875;28;20115;-60
2021/01/31 05:56:24;;;;;;;4.80;0.73;;;9.10;99.90;;;;;;5085224;28;20028;-60
2021/01/31 05:58:52;;;;;;;2.42;0.70;;;9.20;99.90;;;;;;5087294;28;20538;-59
2021/01/31 06:01:18;;;;;;;5.47;0.70;;;9.30;99.90;;;;;;5085114;28;20032;-59
2021/01/31 06:03:43;;;;;;;4.18;0.73;;;9.20;99.90;;;;;;5091558;28;20027;-59
2021/01/31 06:06:18;;;;;;;4.28;0.60;;;9.30;99.90;;;;;;5084690;28;20036;-61
2021/01/31 06:08:47;;;;;;;6.38;0.98;;;9.30;99.90;;;;;;5087921;28;20038;-59
2021/01/31 06:11:28;;;;;;;2.33;1.13;;;9.30;99.90;;;;;;5088042;28;20032;-60
2021/01/31 06:14:16;;;;;;;4.18;1.00;;;9.30;99.90;;;;;;5088558;28;20099;-59
2021/01/31 06:16:43;;;;;;;3.25;0.88;;;9.40;99.90;;;;;;5083760;28;20020;-59
2021/01/31 06:19:11;;;;;;;7.38;1.25;;;9.30;99.90;;;;;;5090641;28;20028;-60
2021/01/31 06:21:42;;;;;;;4.90;1.30;;;9.30;99.90;;;;;;5086714;28;20103;-59
2021/01/31 06:24:38;;;;;;;3.58;0.93;;;9.30;99.90;;;;;;5090233;28;20021;-59
2021/01/31 06:27:05;;;;;;;3.83;0.82;;;9.40;99.90;;;;;;5079616;28;20020;-59
2021/01/31 06:30:10;;;;;;;3.72;0.90;;;9.40;99.90;;;;;;5087783;28;20043;-59
2021/01/31 06:32:36;;;;;;;5.75;1.08;;;9.40;99.90;;;;;;5078383;28;20604;-61
2021/01/31 06:35:09;;;;;;;6.47;1.13;;;9.40;99.90;;;;;;5087983;28;20024;-60
2021/01/31 06:37:49;;;;;;;4.63;1.05;;;9.40;99.90;;;;;;5088502;28;20024;-59
2021/01/31 06:40:36;;;;;;;3.85;1.10;;;9.40;99.90;;;;;;5086572;28;20031;-59
2021/01/31 06:43:04;;;;;;;;;;;9.40;99.90;;;;;;5088510;28;20063;-59
2021/01/31 06:45:50;;;;;;;4.88;1.00;;;9.40;99.90;;;;;;5085546;28;19912;-59
2021/01/31 06:48:42;;;;;;;7.43;1.77;;;9.40;99.90;;;;;;5090283;28;20032;-58
2021/01/31 06:51:26;;;;;;;3.45;1.13;;;9.50;99.90;;;;;;5079789;28;20306;-60
2021/01/31 06:54:10;;;;;;;6.60;1.23;;;9.40;99.90;;;;;;5089918;28;20500;-59
2021/01/31 06:56:57;;;;;;;5.82;1.15;;;9.50;99.90;;;;;;5087860;28;20024;-59
2021/01/31 07:00:02;;;;;;;3.22;1.20;;;9.60;99.90;;;;;;5089392;28;20066;-61
2021/01/31 07:03:04;;;;;;;2.60;0.60;;;9.60;99.90;;;;;;5085284;28;20580;-60
2021/01/31 07:06:14;;;;;;;4.63;0.85;;;9.50;99.90;;;;;;5087265;28;20020;-59
2021/01/31 07:09:04;;;;;;;2.75;1.00;;;9.50;99.90;;;;;;5084366;28;20083;-58
2021/01/31 07:11:55;;;;;;;2.35;0.90;;;9.60;99.90;;;;;;5078598;28;20028;-59
2021/01/31 07:15:08;;;;;;;1.95;0.77;;;9.50;99.90;;;;;;5081519;28;20028;-59
2021/01/31 07:17:41;;;;;;;4.78;1.67;;;9.50;99.90;;;;;;5079828;28;20093;-60
2021/01/31 07:20:16;;;;;;;2.33;0.82;;;9.60;99.90;;;;;;5087640;28;20020;-59
2021/01/31 07:22:50;;;;;;;3.03;1.08;;;9.50;99.90;;;;;;5082964;28;20031;-59
2021/01/31 07:25:25;;;;;;;2.75;2.28;;;9.60;99.90;;;;;;5086320;28;20077;-59
2021/01/31 07:27:57;;;;;;;2.03;1.07;;;9.70;99.90;;;;;;5088725;28;20385;-59
2021/01/31 07:30:38;;;;;;;1.85;1.00;;;9.60;99.90;;;;;;5087013;28;20274;-59
2021/01/31 07:33:11;;;;;;;6.00;0.95;;;9.60;99.90;;;;;;5089273;28;20597;-59
2021/01/31 07:35:55;;;;;;;3.13;1.05;;;9.70;99.90;;;;;;5085551;28;20213;-59
2021/01/31 07:38:42;;;;;;;1.13;0.50;;;9.60;99.90;;;;;;5089018;28;20028;-59
2021/01/31 07:41:08;;;;;;;1.45;0.90;;;9.70;99.90;;;;;;5086400;28;20051;-59
2021/01/31 07:43:37;;;;;;;3.53;1.02;;;9.70;99.90;;;;;;5089882;28;20533;-59
2021/01/31 07:46:10;;;;;;;4.88;1.10;;;9.60;99.90;;;;;;5085091;28;20074;-59
2021/01/31 07:48:45;;;;;;;5.20;1.58;;;9.70;99.90;;;;;;5085276;28;20090;-59
2021/01/31 07:51:27;;;;;;;2.85;1.38;;;9.70;99.90;;;;;;5081207;28;20024;-59
2021/01/31 07:53:54;;;;;;;2.05;1.38;;;9.70;99.90;;;;;;5086453;28;20028;-59
2021/01/31 07:56:34;;;;;;;2.22;0.70;;;9.60;99.90;;;;;;5081928;28;20035;-60
2021/01/31 07:59:08;;;;;;;1.48;0.50;;;9.60;99.90;;;;;;5087948;28;20024;-60
2021/01/31 08:01:40;;;;;;;1.05;0.88;;;9.60;99.90;;;;;;5088212;28;20077;-59
2021/01/31 08:04:18;;;;;;;4.53;0.88;;;9.70;99.90;;;;;;5088616;28;20020;-59
2021/01/31 08:06:58;;;;;;;1.30;0.70;;;9.80;99.90;;;;;;5055338;28;20040;-59
2021/01/31 08:09:27;;;;;;;2.95;0.93;;;9.80;99.90;;;;;;5088255;28;20076;-59
2021/01/31 08:12:09;;;;;;;3.20;0.75;;;9.80;99.90;;;;;;5081203;28;20021;-58
2021/01/31 08:15:32;;;;;;;1.95;1.02;;;9.70;99.90;;;;;;5086495;28;20477;-59
2021/01/31 08:17:58;;;;;;;3.25;0.77;;;9.80;99.90;;;;;;5088142;28;20476;-59
2021/01/31 08:20:26;;;;;;;2.45;0.88;;;9.70;99.90;;;;;;5084589;28;20032;-59
2021/01/31 08:22:56;;;;;;;2.85;0.88;;;9.80;99.90;;;;;;5082614;28;20373;-59
2021/01/31 08:25:26;;;;;;;2.42;0.95;;;9.70;99.90;;;;;;5077723;28;20024;-59
2021/01/31 08:28:17;;;;;;;3.55;0.90;;;9.90;99.90;;;;;;5088163;28;20032;-59
2021/01/31 08:31:11;;;;;;;1.30;0.70;;;9.80;99.90;;;;;;5086195;28;20020;-59
2021/01/31 08:33:41;;;;;;;2.08;0.68;;;9.80;99.90;;;;;;5086783;28;20024;-59
2021/01/31 08:36:19;;;;;;;1.65;0.75;;;9.80;99.90;;;;;;5075780;28;20497;-59
2021/01/31 08:38:51;;;;;;;2.05;0.68;;;9.80;99.90;;;;;;5088866;28;20020;-58
2021/01/31 08:41:26;;;;;;;1.13;0.50;;;9.70;99.90;;;;;;5088499;28;20050;-58
2021/01/31 08:43:55;;;;;;;0.93;0.40;;;9.90;99.90;;;;;;5091562;28;20028;-59
2021/01/31 08:46:32;;;;;;;0.40;0.40;;;9.70;99.90;;;;;;5077273;28;20074;-58
2021/01/31 08:49:09;;;;;;;0.70;0.57;;;9.70;99.90;;;;;;5089989;28;20679;-58
2021/01/31 08:51:37;;;;;;;0.50;0.50;;;9.90;99.90;;;;;;5077965;28;20099;-58
2021/01/31 08:54:08;;;;;;;1.92;1.00;;;9.80;99.90;;;;;;5091257;28;20098;-59
2021/01/31 08:56:57;;;;;;;0.55;0.50;;;9.90;99.90;;;;;;5077303;28;20050;-58
2021/01/31 08:59:43;;;;;;;1.25;0.65;;;9.70;99.90;;;;;;5078181;28;20031;-58
2021/01/31 09:02:14;;;;;;;1.08;0.82;;;9.90;99.90;;;;;;5084728;28;20023;-59
2021/01/31 09:04:51;;;;;;;1.48;1.25;;;9.90;99.90;;;;;;5090055;28;20029;-59
2021/01/31 09:07:21;;;;;;;3.15;0.70;;;9.90;99.90;;;;;;5089880;28;20032;-59
2021/01/31 09:09:53;;;;;;;1.13;0.68;;;10.00;99.90;;;;;;5089393;28;20024;-59
2021/01/31 09:12:21;;;;;;;1.08;0.40;;;9.90;99.90;;;;;;5081006;28;20111;-59
2021/01/31 09:14:47;;;;;;;1.95;0.50;;;9.90;99.90;;;;;;5087168;28;20156;-59
2021/01/31 09:17:25;;;;;;;2.10;0.77;;;9.90;99.90;;;;;;5083699;28;20107;-60
2021/01/31 09:20:08;;;;;;;2.42;0.77;;;9.90;99.90;;;;;;5089942;28;20021;-60
2021/01/31 09:22:37;;;;;;;2.00;0.60;;;9.90;99.90;;;;;;5083215;28;20021;-59
2021/01/31 09:25:05;;;;;;;2.00;0.77;;;10.00;99.90;;;;;;5090140;28;20074;-59
2021/01/31 09:27:31;;;;;;;1.52;0.63;;;10.10;99.90;;;;;;5091616;28;20028;-59
2021/01/31 09:30:05;;;;;;;2.00;0.90;;;10.20;99.90;;;;;;5089130;28;20020;-60
2021/01/31 09:32:45;;;;;;;5.25;1.02;;;10.20;99.90;;;;;;5090487;28;20466;-59
2021/01/31 09:35:22;;;;;;;4.95;1.77;;;10.30;99.90;;;;;;5089012;28;20055;-59
2021/01/31 09:37:48;;;;;;;4.63;1.30;;;10.30;99.90;;;;;;5091382;28;20035;-59
2021/01/31 09:40:15;;;;;;;7.40;1.70;;;10.20;99.90;;;;;;5089576;28;20024;-59
2021/01/31 09:42:42;;;;;;;11.02;1.60;;;10.30;99.90;;;;;;5091451;28;20017;-59
2021/01/31 09:45:22;;;;;;;7.38;1.80;;;10.30;99.90;;;;;;5089004;28;20028;-59
2021/01/31 09:47:49;;;;;;;8.05;1.85;;;10.40;99.90;;;;;;5090907;28;20040;-59
2021/01/31 09:50:17;;;;;;;7.38;1.33;;;10.30;99.90;;;;;;5087562;28;20044;-60
2021/01/31 09:52:44;;;;;;;5.90;1.35;;;10.20;99.90;;;;;;5090034;28;20024;-61
2021/01/31 09:55:26;;;;;;;2.45;0.90;;;10.20;99.90;;;;;;5089474;28;20032;-61
2021/01/31 09:57:52;;;;;;;2.85;1.10;;;10.20;99.90;;;;;;5090079;28;20069;-59
2021/01/31 10:00:28;;;;;;;2.35;0.80;;;10.20;99.90;;;;;;5082990;28;20020;-60
2021/01/31 10:03:17;;;;;;;1.55;0.93;;;10.10;99.90;;;;;;5085499;28;20024;-61
2021/01/31 10:05:42;;;;;;;1.65;0.65;;;10.20;99.90;;;;;;5082580;28;20496;-60
2021/01/31 10:08:14;;;;;;;1.45;0.80;;;10.10;99.90;;;;;;5091147;28;20039;-60
2021/01/31 10:10:43;;;;;;;1.83;1.30;;;10.00;99.90;;;;;;5084877;28;20099;-60
2021/01/31 10:13:21;;;;;;;2.22;1.60;;;10.10;99.90;;;;;;5079005;28;20069;-60
2021/01/31 10:15:54;;;;;;;3.08;1.63;;;10.10;99.90;;;;;;5084251;28;20059;-59
2021/01/31 10:18:35;;;;;;;2.20;1.60;;;10.20;99.90;;;;;;5089492;28;20020;-60
2021/01/31 10:21:26;;;;;;;4.13;2.22;;;10.30;99.90;;;;;;5085516;28;20066;-59
2021/01/31 10:24:03;;;;;;;4.03;3.08;;;10.30;99.90;;;;;;5082911;28;20040;-60
2021/01/31 10:26:30;;;;;;;4.00;2.03;;;10.20;99.90;;;;;;5087955;28;20036;-59
2021/01/31 10:28:58;;;;;;;4.25;2.50;;;10.30;99.90;;;;;;5090911;28;20024;-60
2021/01/31 10:31:28;;;;;;;6.28;3.30;;;10.20;99.90;;;;;;5087724;28;20058;-62
2021/01/31 10:33:54;;;;;;;3.25;2.25;;;10.30;99.90;;;;;;5090711;28;20020;-59
2021/01/31 10:36:27;;;;;;;2.33;1.10;;;10.20;99.90;;;;;;5086703;28;20028;-60
2021/01/31 10:38:55;;;;;;;2.45;1.40;;;10.20;99.90;;;;;;5090872;28;20016;-60
2021/01/31 10:41:21;;;;;;;7.90;2.03;;;10.30;99.90;;;;;;5079669;28;20089;-59
2021/01/31 10:44:17;;;;;;;3.13;1.30;;;10.30;99.90;;;;;;5090887;28;20028;-60
2021/01/31 10:46:43;;;;;;;2.70;1.60;;;10.30;99.90;;;;;;5073388;28;20062;-60
2021/01/31 10:49:09;;;;;;;6.90;1.80;;;10.40;99.90;;;;;;5090414;28;20035;-60
2021/01/31 10:51:35;;;;;;;6.47;2.10;;;10.40;99.90;;;;;;5085787;28;20054;-60
2021/01/31 10:54:04;;;;;;;9.13;2.33;;;10.50;99.90;;;;;;5090797;28;20012;-60
2021/01/31 10:56:30;;;;;;;7.47;2.20;;;10.70;99.90;;;;;;5084664;28;20491;-60
2021/01/31 10:58:56;;;;;;;3.45;1.75;;;10.60;99.90;;;;;;5089713;28;20025;-60
2021/01/31 11:01:23;;;;;;;5.20;1.83;;;10.70;99.90;;;;;;5084207;28;20020;-61
2021/01/31 11:03:49;;;;;;;2.38;1.38;;;10.60;99.90;;;;;;5086976;28;20392;-59
2021/01/31 11:06:16;;;;;;;3.22;1.60;;;10.60;99.90;;;;;;5084039;28;20024;-60
2021/01/31 11:08:42;;;;;;;2.97;0.90;;;10.60;99.90;;;;;;5087647;28;20035;-60
2021/01/31 11:11:08;;;;;;;1.73;0.95;;;10.60;99.90;;;;;;5087647;28;20381;-61
2021/01/31 11:13:34;;;;;;;1.40;0.80;;;10.80;99.90;;;;;;5089687;28;20030;-59
2021/01/31 11:16:00;;;;;;;1.88;0.95;;;10.70;99.90;;;;;;5087508;28;20058;-59
2021/01/31 11:18:26;;;;;;;2.58;1.00;;;10.60;99.90;;;;;;5089340;28;20089;-59
2021/01/31 11:20:52;;;;;;;4.70;0.98;;;10.60;99.90;;;;;;5086911;28;20048;-59
2021/01/31 11:23:18;;;;;;;2.72;1.20;;;10.50;99.90;;;;;;5087152;28;20514;-59
2021/01/31 11:25:44;;;;;;;5.25;1.33;;;10.70;99.90;;;;;;5083551;28;20106;-59
2021/01/31 11:28:10;;;;;;;5.97;1.40;;;10.90;99.90;;;;;;5099367;28;20461;-62
2021/01/31 11:30:36;;;;;;;7.32;1.92;;;10.90;99.90;;;;;;5099422;28;20106;-59
2021/01/31 11:33:02;;;;;;;7.05;1.90;;;10.80;99.90;;;;;;5106818;28;20111;-59
2021/01/31 11:35:29;;;;;;;4.10;1.73;;;10.90;99.90;;;;;;5098768;28;20035;-59
2021/01/31 11:37:56;;;;;;;8.32;1.83;;;10.80;99.90;;;;;;5106503;28;20035;-59
2021/01/31 11:40:23;;;;;;;8.43;1.92;;;10.70;99.90;;;;;;5099613;28;20015;-59
2021/01/31 11:42:49;;;;;;;8.60;1.95;;;10.80;99.90;;;;;;5104078;28;20016;-59
2021/01/31 11:45:15;;;;;;;8.60;2.22;;;10.80;99.90;;;;;;5096259;28;20065;-59
2021/01/31 11:47:41;;;;;;;10.73;2.35;;;11.00;99.90;;;;;;5099204;28;20043;-59
2021/01/31 11:50:09;;;;;;;7.85;2.47;;;11.00;99.90;;;;;;5099092;28;20465;-60
2021/01/31 11:52:35;;;;;;;5.85;2.10;;;11.00;99.90;;;;;;5104572;28;20020;-58
2021/01/31 11:55:01;;;;;;;10.57;2.13;;;10.90;99.90;;;;;;5100299;28;20031;-59
2021/01/31 11:57:26;;;;;;;8.20;2.55;;;10.90;99.90;;;;;;5094826;28;20028;-60
2021/01/31 11:59:52;;;;;;;10.77;2.42;;;11.10;99.90;;;;;;5091418;28;20016;-60
2021/01/31 12:02:17;;;;;;;9.82;2.78;;;11.40;99.90;;;;;;5076375;28;20415;-59
2021/01/31 12:04:43;;;;;;;7.20;2.17;;;11.30;99.90;;;;;;5102596;28;20082;-60
2021/01/31 12:07:09;;;;;;;8.00;2.35;;;11.40;99.90;;;;;;5089190;28;20518;-60
2021/01/31 12:09:36;;;;;;;7.57;2.50;;;11.50;99.90;;;;;;5087894;28;20093;-60
2021/01/31 12:12:02;;;;;;;7.28;2.20;;;11.60;99.90;;;;;;5081231;28;20095;-60
2021/01/31 12:14:28;;;;;;;11.73;2.40;;;11.60;99.90;;;;;;5084991;28;20021;-60
2021/01/31 12:16:54;;;;;;;7.90;2.10;;;11.90;99.90;;;;;;5087403;28;20073;-60
2021/01/31 12:19:21;;;;;;;9.80;3.08;;;11.80;99.90;;;;;;5087395;28;20074;-60
2021/01/31 12:21:47;;;;;;;10.23;2.47;;;11.90;99.90;;;;;;5089836;28;20103;-60
2021/01/31 12:24:12;;;;;;;9.77;2.90;;;11.70;99.90;;;;;;5098448;28;20135;-60
2021/01/31 12:26:38;;;;;;;11.43;3.10;;;11.80;99.90;;;;;;5085032;28;20094;-60
2021/01/31 12:29:05;;;;;;;16.63;3.35;;;11.90;99.90;;;;;;5088699;28;20050;-59
2021/01/31 12:31:31;;;;;;;20.30;3.47;;;11.70;99.90;;;;;;5096943;28;20470;-60
2021/01/31 12:33:56;;;;;;;17.20;3.33;;;11.60;99.90;;;;;;5099155;28;20043;-60
2021/01/31 12:36:22;;;;;;;13.70;3.70;;;11.60;99.90;;;;;;5081989;28;20522;-60
2021/01/31 12:38:48;;;;;;;16.02;4.38;;;11.60;99.90;;;;;;5088617;28;20521;-60
2021/01/31 12:41:13;;;;;;;16.92;3.58;;;11.60;99.90;;;;;;5082831;28;20030;-60
2021/01/31 12:43:39;;;;;;;21.00;4.07;;;11.50;99.90;;;;;;5089515;28;20503;-60
2021/01/31 12:46:04;;;;;;;21.00;4.47;;;11.50;99.90;;;;;;5079117;28;20048;-60
2021/01/31 12:48:30;;;;;;;20.38;4.53;;;11.50;99.90;;;;;;5093319;28;20544;-60
2021/01/31 12:50:56;;;;;;;15.25;4.50;;;11.50;99.90;;;;;;5092298;28;20558;-61
2021/01/31 12:53:22;;;;;;;17.42;5.15;;;11.50;99.90;;;;;;5089051;28;20167;-60
2021/01/31 12:55:47;;;;;;;23.92;4.20;;;11.50;99.90;;;;;;5083303;28;20077;-60
2021/01/31 12:58:13;;;;;;;30.55;4.97;;;11.50;99.90;;;;;;5080943;28;20024;-60
2021/01/31 13:00:38;;;;;;;23.00;5.25;;;11.50;99.90;;;;;;5078543;28;20036;-60
2021/01/31 13:03:04;;;;;;;28.05;4.95;;;11.50;99.90;;;;;;5083409;28;20016;-60
2021/01/31 13:05:31;;;;;;;30.35;5.82;;;11.50;99.90;;;;;;5083437;28;20036;-59
2021/01/31 13:08:01;;;;;;;28.50;5.43;;;11.70;99.90;;;;;;5088293;28;20112;-60
2021/01/31 13:10:29;;;;;;;37.25;6.50;;;11.90;99.90;;;;;;5082785;28;20028;-61
2021/01/31 13:12:55;;;;;;;35.47;6.38;;;11.80;99.90;;;;;;5091571;28;20061;-62
2021/01/31 13:15:21;;;;;;;45.10;7.40;;;11.80;99.90;;;;;;5092400;28;20035;-60
2021/01/31 13:17:47;;;;;;;40.05;7.05;;;11.80;99.90;;;;;;5093948;28;20551;-60
2021/01/31 13:20:13;;;;;;;39.72;7.53;;;12.10;99.90;;;;;;5097414;28;20162;-61